Time;durP1;ratioP1;P1;durP2;ratioP2;P2;SDS_P1;SDS_P2;PMS_P1;PMS_P2;Temp;Humidity;BMP_temperature;BMP_pressure;BME280_temperature;BME280_humidity;BME280_pressure;Samples;Min_cycle;Max_cycle;Signal;HPM_P1;HPM_P2
2023/10/29 00:01:31;;;;;;;32.55;13.70;;;;;;;-144.73;100.00;54736.13;5013414;28;20038;-73
2023/10/29 00:03:57;;;;;;;28.63;12.30;;;;;;;-144.73;100.00;54707.38;5012991;28;20038;-74
2023/10/29 00:06:22;;;;;;;28.65;13.40;;;;;;;-144.73;100.00;54711.47;5013833;28;20037;-74
2023/10/29 00:08:48;;;;;;;28.92;13.07;;;;;;;-144.73;100.00;54715.59;5014063;28;20389;-74
2023/10/29 00:11:13;;;;;;;29.88;13.02;;;;;;;-144.73;100.00;54686.84;5014172;28;20057;-71
2023/10/29 00:13:39;;;;;;;24.15;12.60;;;;;;;-144.73;100.00;54695.06;5014034;28;20026;-72
2023/10/29 00:16:04;;;;;;;34.88;14.18;;;;;;;-144.73;100.00;54738.16;5014141;28;20022;-73
2023/10/29 00:18:30;;;;;;;22.35;10.00;;;;;;;-144.73;100.00;54695.06;5014281;28;20026;-73
2023/10/29 00:20:55;;;;;;;26.52;11.98;;;;;;;-144.73;100.00;54684.78;5012265;28;20037;-74
2023/10/29 00:23:20;;;;;;;17.65;9.68;;;;;;;-144.73;100.00;54711.47;5014133;28;20044;-74
2023/10/29 00:25:46;;;;;;;25.88;11.45;;;;;;;-144.73;100.00;54719.69;5013964;28;20034;-74
2023/10/29 00:28:11;;;;;;;22.10;10.63;;;;;;;-144.73;100.00;54699.16;5013036;28;20053;-74
2023/10/29 00:30:37;;;;;;;18.27;9.73;;;;;;;-144.73;100.00;54697.13;5013449;28;20080;-74
2023/10/29 00:33:03;;;;;;;23.38;10.18;;;;;;;-144.73;100.00;54690.97;5012202;28;20033;-74
2023/10/29 00:35:28;;;;;;;29.02;11.43;;;;;;;-144.73;100.00;54670.44;5012051;28;20096;-76
2023/10/29 00:37:54;;;;;;;21.58;9.38;;;;;;;-144.73;100.00;54690.97;5012673;28;20066;-74
2023/10/29 00:40:19;;;;;;;26.38;11.15;;;;;;;-144.73;100.00;54715.59;5012120;28;20038;-74
2023/10/29 00:42:44;;;;;;;32.85;18.10;;;;;;;-144.73;100.00;54676.59;5012417;28;20086;-74
2023/10/29 00:45:10;;;;;;;33.20;12.00;;;;;;;-144.73;100.00;54678.63;5012013;28;20123;-74
2023/10/29 00:47:36;;;;;;;23.83;10.18;;;;;;;-144.73;100.00;54715.59;5012718;28;20461;-74
2023/10/29 00:50:03;;;;;;;28.48;10.30;;;;;;;-144.73;100.00;54686.84;5012048;28;20038;-74
2023/10/29 00:52:28;;;;;;;26.10;9.90;;;;;;;-144.73;100.00;54709.44;5013277;28;20433;-74
2023/10/29 00:54:54;;;;;;;25.23;10.55;;;;;;;-144.73;100.00;54678.63;5011460;28;20041;-73
2023/10/29 00:57:20;;;;;;;25.33;10.45;;;;;;;-144.73;100.00;54699.16;5012970;28;20037;-74
2023/10/29 00:59:47;;;;;;;25.38;10.02;;;;;;;-144.73;100.00;54678.63;5012095;28;20053;-74
2023/10/29 01:02:13;;;;;;;26.52;10.18;;;;;;;-144.73;100.00;54699.16;5012293;28;20030;-73
2023/10/29 01:04:38;;;;;;;16.95;9.63;;;;;;;-144.73;100.00;54707.38;5011563;28;20412;-74
2023/10/29 01:07:04;;;;;;;28.20;11.20;;;;;;;-144.73;100.00;54715.59;5011925;28;20033;-74
2023/10/29 01:09:30;;;;;;;16.98;7.70;;;;;;;-144.73;100.00;54641.69;5012795;28;20414;-74
2023/10/29 01:11:55;;;;;;;22.17;9.30;;;;;;;-144.73;100.00;54678.63;5011750;28;20045;-74
2023/10/29 01:14:20;;;;;;;33.88;9.68;;;;;;;-144.73;100.00;54670.44;5012495;28;20038;-74
2023/10/29 01:16:46;;;;;;;16.98;9.27;;;;;;;-144.73;100.00;54736.13;5012158;28;20416;-73
2023/10/29 01:19:11;;;;;;;21.30;9.68;;;;;;;-144.73;100.00;54729.97;5011441;28;20034;-74
2023/10/29 01:21:36;;;;;;;19.88;8.95;;;;;;;-144.73;100.00;54719.69;5013294;28;20076;-74
2023/10/29 01:24:02;;;;;;;21.25;8.55;;;;;;;-144.73;100.00;54703.28;5011186;28;20037;-73
2023/10/29 01:26:28;;;;;;;21.42;11.88;;;;;;;-144.73;100.00;54738.16;5013152;28;20033;-74
2023/10/29 01:28:53;;;;;;;19.85;8.57;;;;;;;-144.73;100.00;54703.28;5012090;28;20034;-73
2023/10/29 01:31:18;;;;;;;24.95;9.00;;;;;;;-144.73;100.00;54715.59;5011762;28;20018;-73
2023/10/29 01:33:44;;;;;;;17.38;9.23;;;;;;;-144.73;100.00;54719.69;5012197;28;20087;-73
2023/10/29 01:36:09;;;;;;;21.27;8.57;;;;;;;-144.73;100.00;54711.47;5012956;28;20021;-73
2023/10/29 01:38:34;;;;;;;24.15;8.20;;;;;;;-144.73;100.00;54703.28;5012704;28;20061;-74
2023/10/29 01:41:00;;;;;;;24.92;8.55;;;;;;;-144.73;100.00;54748.44;5011672;28;20116;-73
2023/10/29 01:43:26;;;;;;;19.38;8.95;;;;;;;-144.73;100.00;54711.47;5011579;28;20049;-73
2023/10/29 01:45:51;;;;;;;18.20;8.63;;;;;;;-144.73;100.00;54707.38;5009638;28;20057;-73
2023/10/29 01:48:17;;;;;;;18.38;8.45;;;;;;;-144.73;100.00;54686.84;5011965;28;20029;-75
2023/10/29 01:50:43;;;;;;;17.92;8.23;;;;;;;-144.73;100.00;54723.81;5011236;28;20034;-76
2023/10/29 01:53:09;;;;;;;30.27;7.00;;;;;;;-144.73;100.00;54711.47;5012884;28;20026;-73
2023/10/29 01:55:37;;;;;;;14.90;7.47;;;;;;;-144.73;100.00;54719.69;5010644;28;20042;-72
2023/10/29 01:58:03;;;;;;;16.23;7.38;;;;;;;-144.73;100.00;54688.91;5011263;28;20034;-73
2023/10/29 02:00:28;;;;;;;17.48;8.00;;;;;;;-144.73;100.00;54688.91;5011809;28;20086;-74
2023/10/29 02:02:54;;;;;;;14.65;6.50;;;;;;;-144.73;100.00;54727.91;5011041;28;20026;-73
2023/10/29 02:05:19;;;;;;;18.80;8.00;;;;;;;-144.73;100.00;54690.97;5010614;28;20069;-73
2023/10/29 02:07:45;;;;;;;24.08;8.18;;;;;;;-144.73;100.00;54695.06;5011581;28;20053;-74
2023/10/29 02:10:10;;;;;;;24.08;7.28;;;;;;;-144.73;100.00;54705.31;5011797;28;20037;-74
2023/10/29 02:12:36;;;;;;;13.55;6.70;;;;;;;-144.73;100.00;54690.97;5011990;28;20052;-74
2023/10/29 02:15:03;;;;;;;20.27;7.65;;;;;;;-144.73;100.00;54719.69;5011840;28;20026;-73
2023/10/29 02:17:28;;;;;;;20.23;7.72;;;;;;;-144.73;100.00;54715.59;5011252;28;20026;-73
2023/10/29 02:19:57;;;;;;;17.77;7.47;;;;;;;-144.73;100.00;54695.06;5011356;28;20049;-73
2023/10/29 02:22:23;;;;;;;16.75;7.82;;;;;;;-144.73;100.00;54672.47;5011047;28;20079;-72
2023/10/29 02:24:49;;;;;;;17.73;7.20;;;;;;;-144.73;100.00;54686.84;5010393;28;20113;-75
2023/10/29 02:27:14;;;;;;;18.33;7.13;;;;;;;-144.73;100.00;54719.69;5011287;28;20120;-75
2023/10/29 02:29:40;;;;;;;17.65;6.95;;;;;;;-144.73;100.00;54711.47;5010463;28;20455;-73
2023/10/29 02:32:05;;;;;;;28.17;8.48;;;;;;;-144.73;100.00;54697.13;5010685;28;20456;-73
2023/10/29 02:34:30;;;;;;;16.58;7.32;;;;;;;-144.73;100.00;54686.84;5010098;28;20042;-72
2023/10/29 02:36:56;;;;;;;23.48;8.98;;;;;;;-144.73;100.00;54719.69;5010684;28;20033;-75
2023/10/29 02:39:21;;;;;;;15.80;7.38;;;;;;;-144.73;100.00;54699.16;5011297;28;20057;-73
2023/10/29 02:41:46;;;;;;;27.10;8.43;;;;;;;-144.73;100.00;54690.97;5010406;28;20053;-74
2023/10/29 02:44:12;;;;;;;20.33;8.57;;;;;;;-144.73;100.00;54703.28;5009862;28;20115;-74
2023/10/29 02:46:37;;;;;;;16.33;7.00;;;;;;;-144.73;100.00;54723.81;5010806;28;20018;-73
2023/10/29 02:49:03;;;;;;;22.38;8.30;;;;;;;-144.73;100.00;54727.91;5003957;28;20022;-73
2023/10/29 02:51:28;;;;;;;19.55;7.95;;;;;;;-144.73;100.00;54680.69;5010619;28;20028;-73
2023/10/29 02:53:54;;;;;;;21.38;8.75;;;;;;;-144.73;100.00;54711.47;5010064;28;20442;-73
2023/10/29 02:56:19;;;;;;;15.57;7.00;;;;;;;-144.73;100.00;54680.69;5011798;28;20041;-74
2023/10/29 02:58:44;;;;;;;30.85;8.32;;;;;;;-144.73;100.00;54711.47;5009953;28;20026;-74
2023/10/29 03:01:10;;;;;;;15.10;8.00;;;;;;;-144.73;100.00;54670.44;5010439;28;20085;-72
2023/10/29 03:03:36;;;;;;;13.35;6.63;;;;;;;-144.73;100.00;54699.16;5010663;28;20034;-74
2023/10/29 03:06:08;;;;;;;17.60;7.65;;;;;;;-144.73;100.00;54707.38;5010504;28;20049;-71
2023/10/29 03:08:34;;;;;;;;;;;;;;;-144.73;100.00;54707.38;5011269;28;20034;-73
2023/10/29 03:10:59;;;;;;;18.73;7.03;;;;;;;-144.73;100.00;54740.22;5010466;28;19916;-72
2023/10/29 03:13:25;;;;;;;23.13;7.63;;;;;;;-144.73;100.00;54727.91;5010170;28;20122;-73
2023/10/29 03:15:50;;;;;;;14.80;7.35;;;;;;;-144.73;100.00;54699.16;5009626;28;20037;-72
2023/10/29 03:18:16;;;;;;;19.85;8.02;;;;;;;-144.73;100.00;54707.38;5010355;28;20022;-74
2023/10/29 03:20:41;;;;;;;12.32;6.00;;;;;;;-144.73;100.00;54752.53;5009603;28;20036;-72
2023/10/29 03:23:08;;;;;;;19.08;6.90;;;;;;;-144.73;100.00;54715.59;5011782;28;20026;-74
2023/10/29 03:25:33;;;;;;;19.52;8.10;;;;;;;-144.73;100.00;54744.31;5010113;28;20053;-73
2023/10/29 03:27:58;;;;;;;15.98;7.20;;;;;;;-144.73;100.00;54703.28;5010394;28;20115;-74
2023/10/29 03:30:24;;;;;;;15.98;7.97;;;;;;;-144.73;100.00;54713.53;5009863;28;20030;-73
2023/10/29 03:32:49;;;;;;;17.35;8.38;;;;;;;-144.73;100.00;54723.81;5011118;28;20022;-75
2023/10/29 03:35:15;;;;;;;21.92;8.63;;;;;;;-144.73;100.00;54740.22;5009413;28;20041;-73
2023/10/29 03:37:41;;;;;;;14.15;6.53;;;;;;;-144.73;100.00;54688.91;5011139;28;20024;-72
2023/10/29 03:40:07;;;;;;;14.82;8.77;;;;;;;-144.73;100.00;54662.22;5010854;28;20034;-73
2023/10/29 03:42:33;;;;;;;17.05;7.93;;;;;;;-144.73;100.00;54670.44;5009718;28;20088;-74
2023/10/29 03:44:58;;;;;;;12.95;6.78;;;;;;;-144.73;100.00;54678.63;5009360;28;20038;-73
2023/10/29 03:47:24;;;;;;;16.95;7.55;;;;;;;-144.73;100.00;54690.97;5011499;28;20033;-72
2023/10/29 03:49:49;;;;;;;16.65;7.43;;;;;;;-144.73;100.00;54678.63;5009419;28;20026;-72
2023/10/29 03:52:15;;;;;;;13.25;8.63;;;;;;;-144.73;100.00;54703.28;5009991;28;20037;-73
2023/10/29 03:54:41;;;;;;;16.42;7.05;;;;;;;-144.73;100.00;54725.84;5009123;28;20125;-72
2023/10/29 03:57:07;;;;;;;21.13;8.70;;;;;;;-144.73;100.00;54740.22;5010052;28;20116;-73
2023/10/29 03:59:34;;;;;;;12.98;6.90;;;;;;;-144.73;100.00;54705.31;5009225;28;20053;-73
2023/10/29 04:01:59;;;;;;;15.23;6.68;;;;;;;-144.73;100.00;54693.00;5009866;28;20133;-72
2023/10/29 04:04:24;;;;;;;12.40;6.78;;;;;;;-144.73;100.00;54734.06;5009167;28;20072;-74
2023/10/29 04:06:50;;;;;;;12.70;6.80;;;;;;;-144.73;100.00;54748.44;5009563;28;20030;-72
2023/10/29 04:09:15;;;;;;;14.23;5.35;;;;;;;-144.73;100.00;54707.38;5010844;28;20030;-73
2023/10/29 04:11:40;;;;;;;13.40;6.00;;;;;;;-144.73;100.00;54736.13;5014042;28;20022;-74
2023/10/29 04:14:06;;;;;;;10.05;6.07;;;;;;;-144.73;100.00;54719.69;5012382;28;20038;-75
2023/10/29 04:16:32;;;;;;;20.98;6.90;;;;;;;-144.73;100.00;54707.38;5013653;28;20065;-73
2023/10/29 04:18:57;;;;;;;11.73;5.85;;;;;;;-144.73;100.00;54690.97;5012792;28;20037;-75
2023/10/29 04:21:22;;;;;;;12.73;6.57;;;;;;;-144.73;100.00;54703.28;5012999;28;20370;-75
2023/10/29 04:23:48;;;;;;;22.50;7.07;;;;;;;-144.73;100.00;54760.75;5012577;28;20079;-74
2023/10/29 04:26:13;;;;;;;11.40;5.50;;;;;;;-144.73;100.00;54678.63;5013433;28;20120;-76
2023/10/29 04:28:38;;;;;;;8.70;5.70;;;;;;;-144.73;100.00;54760.75;5013060;28;20034;-74
2023/10/29 04:31:04;;;;;;;11.20;6.55;;;;;;;-144.73;100.00;54670.44;5013212;28;20525;-76
2023/10/29 04:33:29;;;;;;;11.55;6.45;;;;;;;-144.73;100.00;54699.16;5013334;28;20117;-74
2023/10/29 04:35:54;;;;;;;17.00;6.60;;;;;;;-144.73;100.00;54662.22;5012051;28;20069;-75
2023/10/29 04:38:20;;;;;;;13.73;6.35;;;;;;;-144.73;100.00;54703.28;5013232;28;20465;-76
2023/10/29 04:40:45;;;;;;;17.90;6.50;;;;;;;-144.73;100.00;54719.69;5012147;28;20172;-74
2023/10/29 04:43:11;;;;;;;13.02;7.53;;;;;;;-144.73;100.00;54715.59;5013250;28;20030;-76
2023/10/29 04:45:37;;;;;;;11.80;6.95;;;;;;;-144.73;100.00;54686.84;5012413;28;20058;-74
2023/10/29 04:48:02;;;;;;;11.15;6.82;;;;;;;-144.73;100.00;54723.81;5012726;28;20018;-75
2023/10/29 04:50:30;;;;;;;10.40;6.63;;;;;;;-144.73;100.00;54723.81;5012059;28;20034;-76
2023/10/29 04:52:56;;;;;;;14.00;5.95;;;;;;;-144.73;100.00;54746.38;5014038;28;20030;-73
2023/10/29 04:55:21;;;;;;;10.07;6.97;;;;;;;-144.73;100.00;54719.69;5012190;28;20049;-75
2023/10/29 04:57:47;;;;;;;12.70;7.07;;;;;;;-144.73;100.00;54715.59;5012482;28;20022;-75
2023/10/29 05:00:13;;;;;;;18.48;7.32;;;;;;;-144.73;100.00;54695.06;5011528;28;20036;-74
2023/10/29 05:02:38;;;;;;;16.52;7.38;;;;;;;-144.73;100.00;54723.81;5012125;28;20021;-74
2023/10/29 05:05:06;;;;;;;13.52;7.63;;;;;;;-144.73;100.00;54686.84;5011917;28;20038;-75
2023/10/29 05:07:32;;;;;;;13.70;6.85;;;;;;;-144.73;100.00;54715.59;5012967;28;20480;-75
2023/10/29 05:09:58;;;;;;;14.07;7.88;;;;;;;-144.73;100.00;54695.06;5011873;28;20046;-74
2023/10/29 05:12:23;;;;;;;13.82;6.88;;;;;;;-144.73;100.00;54707.38;5012026;28;20080;-74
2023/10/29 05:14:51;;;;;;;10.18;6.50;;;;;;;-144.73;100.00;54676.59;5011425;28;20482;-75
2023/10/29 05:17:16;;;;;;;11.40;6.90;;;;;;;-144.73;100.00;54695.06;5011793;28;20427;-75
2023/10/29 05:19:42;;;;;;;17.05;8.18;;;;;;;-144.73;100.00;54674.53;5011593;28;20057;-74
2023/10/29 05:22:08;;;;;;;11.15;6.57;;;;;;;-144.73;100.00;54703.28;5013103;28;20026;-74
2023/10/29 05:24:34;;;;;;;13.25;5.72;;;;;;;-144.73;100.00;54719.69;5012527;28;20036;-74
2023/10/29 05:26:59;;;;;;;18.40;6.90;;;;;;;-144.73;100.00;54723.81;5011816;28;20058;-75
2023/10/29 05:29:26;;;;;;;10.40;6.03;;;;;;;-144.73;100.00;54711.47;5012707;28;20053;-75
2023/10/29 05:31:51;;;;;;;14.32;6.35;;;;;;;-144.73;100.00;54723.81;5013180;28;20060;-75
2023/10/29 05:34:16;;;;;;;11.50;6.22;;;;;;;-144.73;100.00;54686.84;5011729;28;20042;-73
2023/10/29 05:36:42;;;;;;;13.85;6.88;;;;;;;-144.73;100.00;54645.78;5012720;28;20068;-74
2023/10/29 05:39:08;;;;;;;10.95;5.95;;;;;;;-144.73;100.00;54699.16;5011372;28;20087;-74
2023/10/29 05:41:33;;;;;;;16.40;5.80;;;;;;;-144.73;100.00;54658.13;5012968;28;20065;-75
2023/10/29 05:43:59;;;;;;;9.18;5.55;;;;;;;-144.73;100.00;54736.13;5010919;28;20037;-72
2023/10/29 05:46:24;;;;;;;10.40;5.90;;;;;;;-144.73;100.00;54678.63;5011563;28;20419;-75
2023/10/29 05:48:50;;;;;;;13.85;5.38;;;;;;;-144.73;100.00;54703.28;5011238;28;20033;-75
2023/10/29 05:51:19;;;;;;;13.90;5.38;;;;;;;-144.73;100.00;54641.69;5012520;28;20028;-75
2023/10/29 05:53:48;;;;;;;11.38;5.47;;;;;;;-144.73;100.00;54703.28;5010736;28;20041;-75
2023/10/29 05:56:14;;;;;;;13.23;4.82;;;;;;;-144.73;100.00;54707.38;5011521;28;20035;-73
2023/10/29 05:58:39;;;;;;;10.98;5.10;;;;;;;-144.73;100.00;54760.75;5010957;28;20025;-73
2023/10/29 06:01:05;;;;;;;11.05;5.88;;;;;;;-144.73;100.00;54699.16;5011311;28;20038;-74
2023/10/29 06:03:30;;;;;;;10.13;5.35;;;;;;;-144.73;100.00;54697.13;5011449;28;20391;-75
2023/10/29 06:05:56;;;;;;;10.35;5.03;;;;;;;-144.73;100.00;54686.84;5010749;28;20030;-76
2023/10/29 06:08:21;;;;;;;11.93;5.30;;;;;;;-144.73;100.00;54658.13;5011735;28;20484;-76
2023/10/29 06:10:47;;;;;;;14.20;5.55;;;;;;;-144.73;100.00;54744.31;5011319;28;20044;-75
2023/10/29 06:13:13;;;;;;;19.58;5.85;;;;;;;-144.73;100.00;54682.75;5011492;28;20045;-73
2023/10/29 06:15:39;;;;;;;11.15;5.90;;;;;;;-144.73;100.00;54707.38;5010842;28;20037;-76
2023/10/29 06:18:06;;;;;;;15.40;5.28;;;;;;;-144.73;100.00;54695.06;5012478;28;20428;-74
2023/10/29 06:20:32;;;;;;;14.93;5.57;;;;;;;-144.73;100.00;54736.13;5010428;28;20057;-73
2023/10/29 06:22:58;;;;;;;13.73;4.63;;;;;;;-144.73;100.00;54732.00;5011644;28;20114;-72
2023/10/29 06:25:24;;;;;;;15.18;5.50;;;;;;;-144.73;100.00;54672.47;5010768;28;20057;-71
2023/10/29 06:27:49;;;;;;;14.55;4.60;;;;;;;-144.73;100.00;54705.31;5011242;28;20049;-72
2023/10/29 06:30:16;;;;;;;12.80;3.90;;;;;;;-144.73;100.00;54699.16;5010722;28;20030;-72
2023/10/29 06:32:42;;;;;;;9.98;4.43;;;;;;;-144.73;100.00;54680.69;5010581;28;20512;-74
2023/10/29 06:35:08;;;;;;;13.32;3.95;;;;;;;-144.73;100.00;54695.06;5010960;28;20033;-74
2023/10/29 06:37:33;;;;;;;8.88;4.35;;;;;;;-144.73;100.00;54695.06;5011058;28;20033;-73
2023/10/29 06:39:59;;;;;;;9.70;4.10;;;;;;;-144.73;100.00;54690.97;5010470;28;20052;-74
2023/10/29 06:42:24;;;;;;;9.38;3.47;;;;;;;-144.73;100.00;54703.28;5011394;28;20462;-73
2023/10/29 06:44:50;;;;;;;11.43;4.30;;;;;;;-144.73;100.00;54707.38;5010753;28;20045;-75
2023/10/29 06:47:15;;;;;;;9.95;3.83;;;;;;;-144.73;100.00;54686.84;5011914;28;20022;-73
2023/10/29 06:49:41;;;;;;;10.43;3.10;;;;;;;-144.73;100.00;54699.16;5010479;28;20064;-75
2023/10/29 06:52:07;;;;;;;15.57;3.60;;;;;;;-144.73;100.00;54686.84;5010801;28;20050;-73
2023/10/29 06:54:33;;;;;;;10.95;3.88;;;;;;;-144.73;100.00;54713.53;5010443;28;20072;-74
2023/10/29 06:56:59;;;;;;;14.50;3.72;;;;;;;-144.73;100.00;54717.66;5010940;28;20022;-75
2023/10/29 06:59:24;;;;;;;8.75;3.30;;;;;;;-144.73;100.00;54732.00;5009563;28;20026;-73
2023/10/29 07:01:50;;;;;;;13.43;4.20;;;;;;;-144.73;100.00;54711.47;5011177;28;20026;-74
2023/10/29 07:04:16;;;;;;;13.38;3.58;;;;;;;-144.73;100.00;54715.59;5010882;28;20430;-72
2023/10/29 07:06:42;;;;;;;11.02;3.72;;;;;;;-144.73;100.00;54670.44;5010365;28;20357;-73
2023/10/29 07:09:07;;;;;;;10.90;3.28;;;;;;;-144.73;100.00;54699.16;5009583;28;20080;-74
2023/10/29 07:11:32;;;;;;;5.53;3.08;;;;;;;-144.73;100.00;54645.78;5010211;28;20121;-75
2023/10/29 07:13:58;;;;;;;10.68;3.17;;;;;;;-144.73;100.00;54690.97;5009849;28;20030;-72
2023/10/29 07:16:23;;;;;;;11.40;3.40;;;;;;;-144.73;100.00;54727.91;5010466;28;20029;-73
2023/10/29 07:18:49;;;;;;;6.75;2.78;;;;;;;-144.73;100.00;54736.13;5011234;28;20034;-74
2023/10/29 07:21:14;;;;;;;7.05;2.40;;;;;;;-144.73;100.00;54670.44;5010071;28;20026;-76
2023/10/29 07:23:40;;;;;;;10.30;2.28;;;;;;;-144.73;100.00;54732.00;5009665;28;20401;-75
2023/10/29 07:26:06;;;;;;;8.90;2.50;;;;;;;-144.73;100.00;54682.75;5010129;28;20080;-75
2023/10/29 07:28:34;;;;;;;7.05;2.85;;;;;;;-144.73;100.00;54699.16;5010512;28;20037;-74
2023/10/29 07:31:01;;;;;;;8.13;2.65;;;;;;;-144.73;100.00;54703.28;5010247;28;20018;-74
2023/10/29 07:33:26;;;;;;;14.45;2.70;;;;;;;-144.73;100.00;54699.16;5010063;28;20086;-74
2023/10/29 07:35:51;;;;;;;5.50;2.75;;;;;;;-144.73;100.00;54682.75;5010587;28;20102;-74
2023/10/29 07:38:16;;;;;;;6.60;1.80;;;;;;;-144.73;100.00;54682.75;5009754;28;20034;-74
2023/10/29 07:40:42;;;;;;;5.43;1.65;;;;;;;-144.73;100.00;54699.16;5009231;28;20023;-72
2023/10/29 07:43:07;;;;;;;6.32;2.00;;;;;;;-144.73;100.00;54715.59;5009900;28;20024;-72
2023/10/29 07:45:33;;;;;;;5.45;1.85;;;;;;;-144.73;100.00;54670.44;5012858;28;20052;-71
2023/10/29 07:47:58;;;;;;;4.80;1.92;;;;;;;-144.73;100.00;54682.75;5014236;28;20036;-70
2023/10/29 07:50:24;;;;;;;5.22;1.70;;;;;;;-144.73;100.00;54670.44;5013467;28;20122;-69
2023/10/29 07:52:49;;;;;;;7.63;2.47;;;;;;;-144.73;100.00;54695.06;5013204;28;20030;-69
2023/10/29 07:55:15;;;;;;;10.73;2.25;;;;;;;-144.73;100.00;54715.59;5012985;28;20026;-69
2023/10/29 07:57:40;;;;;;;6.18;1.85;;;;;;;-144.73;100.00;54693.00;5014614;28;20030;-69
2023/10/29 08:00:15;;;;;;;8.15;2.45;;;;;;;-144.73;100.00;54695.06;5012702;28;20176;-70
2023/10/29 08:02:42;;;;;;;3.95;1.45;;;;;;;-144.73;100.00;54672.47;5013231;28;20900;-71
2023/10/29 08:05:10;;;;;;;6.88;1.48;;;;;;;-144.73;100.00;54699.16;5012751;28;20037;-71
2023/10/29 08:07:36;;;;;;;4.20;2.13;;;;;;;-144.73;100.00;54695.06;5012969;28;20028;-72
2023/10/29 08:10:02;;;;;;;3.88;1.38;;;;;;;-144.73;100.00;54670.44;5012688;28;20034;-71
2023/10/29 08:12:29;;;;;;;6.38;1.58;;;;;;;-144.73;100.00;54723.81;5014603;28;20018;-71
2023/10/29 08:14:54;;;;;;;11.02;2.40;;;;;;;-144.73;100.00;54682.75;5012244;28;20030;-71
2023/10/29 08:17:21;;;;;;;4.13;1.50;;;;;;;-144.73;100.00;54672.47;5013413;28;20112;-73
2023/10/29 08:19:46;;;;;;;9.73;1.85;;;;;;;-144.73;100.00;54674.53;5011834;28;20041;-73
2023/10/29 08:22:12;;;;;;;7.45;1.45;;;;;;;-144.73;100.00;54715.59;5009801;28;20022;-74
2023/10/29 08:24:39;;;;;;;4.47;1.65;;;;;;;-144.73;100.00;54662.22;5011402;28;20091;-74
2023/10/29 08:27:06;;;;;;;6.88;1.65;;;;;;;-144.73;100.00;54674.53;5013468;28;20052;-74
2023/10/29 08:29:34;;;;;;;6.00;1.65;;;;;;;-144.73;100.00;54715.59;5016759;28;20041;-74
2023/10/29 08:32:00;;;;;;;7.63;1.75;;;;;;;-144.73;100.00;54715.59;5019144;28;20104;-75
2023/10/29 08:34:25;;;;;;;2.72;1.20;;;;;;;-144.73;100.00;54699.16;5016603;28;20061;-74
2023/10/29 08:36:50;;;;;;;5.05;1.60;;;;;;;-144.73;100.00;54674.53;5022058;28;20049;-74
2023/10/29 08:39:16;;;;;;;2.92;1.58;;;;;;;-144.73;100.00;54690.97;5018425;28;20057;-74
2023/10/29 08:41:41;;;;;;;3.78;1.48;;;;;;;-144.73;100.00;54637.59;5018733;28;20472;-74
2023/10/29 08:44:06;;;;;;;12.45;1.60;;;;;;;-144.73;100.00;54686.84;5019640;28;20113;-74
2023/10/29 08:46:32;;;;;;;5.68;1.52;;;;;;;-144.73;100.00;54699.16;5020003;28;20033;-74
2023/10/29 08:48:58;;;;;;;4.10;1.70;;;;;;;-144.73;100.00;54672.47;5019077;28;20033;-74
2023/10/29 08:51:23;;;;;;;5.25;2.10;;;;;;;-144.73;100.00;54690.97;5015732;28;20275;-74
2023/10/29 08:53:49;;;;;;;7.38;1.17;;;;;;;-144.73;100.00;54678.63;5009718;28;20030;-74
2023/10/29 08:56:15;;;;;;;7.53;1.60;;;;;;;-144.73;100.00;54686.84;5009573;28;20022;-74
2023/10/29 08:58:41;;;;;;;5.38;1.40;;;;;;;-144.73;100.00;54703.28;4996564;28;20088;-75
2023/10/29 09:01:08;;;;;;;5.65;1.73;;;;;;;-144.73;100.00;54695.06;5002845;28;20038;-74
2023/10/29 09:03:33;;;;;;;8.40;1.45;;;;;;;-144.73;100.00;54695.06;5007450;28;20076;-75
2023/10/29 09:06:03;;;;;;;3.63;1.38;;;;;;;-144.73;100.00;54713.53;5009099;28;20049;-75
2023/10/29 09:08:30;;;;;;;7.70;1.38;;;;;;;-144.73;100.00;54682.75;5010401;28;20023;-74
2023/10/29 09:10:56;;;;;;;3.55;1.38;;;;;;;-144.73;100.00;54662.22;5009766;28;20121;-74
2023/10/29 09:13:23;;;;;;;2.13;1.05;;;;;;;-144.73;100.00;54670.44;5006690;28;20085;-75
2023/10/29 09:15:49;;;;;;;5.85;1.95;;;;;;;-144.73;100.00;54670.44;5010155;28;20034;-75
2023/10/29 09:18:14;;;;;;;4.13;1.10;;;;;;;-144.73;100.00;54697.13;5006207;28;20536;-75
2023/10/29 09:20:40;;;;;;;9.13;1.50;;;;;;;-144.73;100.00;54674.53;5005760;28;20566;-75
2023/10/29 09:23:05;;;;;;;5.30;1.40;;;;;;;-144.73;100.00;54699.16;5006948;28;20038;-75
2023/10/29 09:25:30;;;;;;;8.30;2.25;;;;;;;-144.73;100.00;54695.06;5005820;28;20037;-75
2023/10/29 09:27:56;;;;;;;6.20;1.35;;;;;;;-144.73;100.00;54670.44;5006739;28;20034;-76
2023/10/29 09:30:21;;;;;;;7.03;1.55;;;;;;;-144.73;100.00;54723.81;5008282;28;20045;-73
2023/10/29 09:32:46;;;;;;;6.95;1.60;;;;;;;-144.73;100.00;54695.06;5008563;28;20077;-74
2023/10/29 09:35:12;;;;;;;3.70;1.45;;;;;;;-144.73;100.00;54707.38;5008109;28;20393;-74
2023/10/29 09:37:37;;;;;;;3.17;1.27;;;;;;;-144.73;100.00;54693.00;5008971;28;20051;-74
2023/10/29 09:40:08;;;;;;;5.03;1.30;;;;;;;-144.73;100.00;54699.16;5008717;28;20393;-74
2023/10/29 09:42:40;;;;;;;6.45;1.42;;;;;;;-144.73;100.00;54637.59;5014296;28;20032;-74
2023/10/29 09:45:07;;;;;;;4.35;1.48;;;;;;;-144.73;100.00;54649.91;5007591;28;20038;-74
2023/10/29 09:47:32;;;;;;;5.55;1.30;;;;;;;-144.73;100.00;54690.97;5006496;28;20077;-75
2023/10/29 09:49:58;;;;;;;4.95;1.70;;;;;;;-144.73;100.00;54621.16;5007855;28;20148;-75
2023/10/29 09:52:28;;;;;;;5.05;1.42;;;;;;;-144.73;100.00;54641.69;5002065;28;20033;-76
2023/10/29 09:54:56;;;;;;;4.40;1.50;;;;;;;-144.73;100.00;54649.91;5008091;28;20042;-75
2023/10/29 09:57:21;;;;;;;3.28;1.20;;;;;;;-144.73;100.00;54680.69;5008773;28;20022;-76
2023/10/29 09:59:47;;;;;;;5.25;1.23;;;;;;;-144.73;100.00;54649.91;5007383;28;20133;-76
2023/10/29 10:07:39;;;;;;;2.33;1.40;;;;;;;-144.73;100.00;54678.63;5030793;28;20049;-72
2023/10/29 10:10:20;;;;;;;9.48;1.45;;;;;;;-144.73;100.00;54699.16;5030108;28;20095;-73
2023/10/29 10:12:56;;;;;;;5.55;1.65;;;;;;;-144.73;100.00;54678.63;5025317;28;20017;-72
2023/10/29 10:15:35;;;;;;;4.82;1.20;;;;;;;-144.73;100.00;54682.75;5041933;28;20127;-73
2023/10/29 10:18:07;;;;;;;5.47;1.42;;;;;;;-144.73;100.00;54670.44;5048330;28;20390;-72
2023/10/29 10:20:56;;;;;;;5.47;1.48;;;;;;;-144.73;100.00;54670.44;5054525;28;20032;-72
2023/10/29 10:23:25;;;;;;;10.45;1.50;;;;;;;-144.73;100.00;54625.28;5048073;28;20021;-71
2023/10/29 10:25:59;;;;;;;7.32;1.48;;;;;;;-144.73;100.00;54625.28;5050745;28;20124;-72
2023/10/29 10:28:24;;;;;;;9.90;1.98;;;;;;;-144.73;100.00;54656.06;5058240;28;20013;-72
2023/10/29 10:31:19;;;;;;;4.30;1.33;;;;;;;-144.73;100.00;54690.97;5045507;28;20086;-72
2023/10/29 10:34:10;;;;;;;4.43;1.65;;;;;;;-144.73;100.00;54654.00;5052001;28;20021;-71
2023/10/29 10:36:39;;;;;;;7.13;1.48;;;;;;;-144.73;100.00;54678.63;5060164;28;20043;-72
2023/10/29 10:39:12;;;;;;;2.50;1.10;;;;;;;-144.73;100.00;54654.00;5046531;28;20043;-72
2023/10/29 10:41:45;;;;;;;8.10;1.70;;;;;;;-144.73;100.00;54678.63;5063782;28;20031;-72
2023/10/29 10:44:19;;;;;;;5.53;1.55;;;;;;;-144.73;100.00;54678.63;5047864;28;20167;-73
2023/10/29 10:47:04;;;;;;;8.82;1.63;;;;;;;-144.73;100.00;54674.53;5051770;28;20051;-72
2023/10/29 10:49:38;;;;;;;4.75;1.30;;;;;;;-144.73;100.00;54682.75;5053535;28;20104;-71
2023/10/29 10:52:11;;;;;;;6.32;1.75;;;;;;;-144.73;100.00;54662.22;5050378;28;20051;-73
2023/10/29 10:54:44;;;;;;;5.75;1.38;;;;;;;-144.73;100.00;54674.53;5050910;28;20033;-72
2023/10/29 10:57:10;;;;;;;4.00;1.35;;;;;;;-144.73;100.00;54654.00;5056111;28;20017;-72
2023/10/29 11:02:18;;;;;;;5.22;1.35;;;;;;;-144.73;100.00;54662.22;5047609;28;20076;-72
2023/10/29 11:04:50;;;;;;;12.10;1.55;;;;;;;-144.73;100.00;54639.63;5029413;28;20029;-72
2023/10/29 11:07:44;;;;;;;;;;;;;;;-144.73;100.00;54645.78;5031594;28;20082;-71
2023/10/29 11:10:20;;;;;;;8.57;1.65;;;;;;;-144.73;100.00;54670.44;5022812;28;19911;-71